sensor_id;sensor_type;location;lat;lon;timestamp;pressure;altitude;pressure_sealevel;temperature;humidity
5703;BME280;2876;51.738;10.050;2023-02-20T00:02:26;100009.50;;;7.15;90.95
5703;BME280;2876;51.738;10.050;2023-02-20T00:08:28;100005.97;;;7.06;91.86
5703;BME280;2876;51.738;10.050;2023-02-20T00:14:30;100006.72;;;6.91;92.38
5703;BME280;2876;51.738;10.050;2023-02-20T00:20:32;100007.56;;;6.91;92.97
5703;BME280;2876;51.738;10.050;2023-02-20T00:26:37;100005.34;;;7.21;91.70
5703;BME280;2876;51.738;10.050;2023-02-20T00:32:39;100003.84;;;7.18;91.56
5703;BME280;2876;51.738;10.050;2023-02-20T00:38:42;99978.25;;;6.99;92.10
5703;BME280;2876;51.738;10.050;2023-02-20T00:44:45;100009.72;;;6.88;92.45
5703;BME280;2876;51.738;10.050;2023-02-20T00:50:46;100003.19;;;6.90;92.93
5703;BME280;2876;51.738;10.050;2023-02-20T00:56:48;99986.94;;;7.01;92.34
5703;BME280;2876;51.738;10.050;2023-02-20T01:02:50;99989.19;;;7.22;90.01
5703;BME280;2876;51.738;10.050;2023-02-20T01:08:52;99986.25;;;6.99;86.50
5703;BME280;2876;51.738;10.050;2023-02-20T01:14:54;99985.06;;;6.94;86.04
5703;BME280;2876;51.738;10.050;2023-02-20T01:20:56;99978.50;;;6.80;86.45
5703;BME280;2876;51.738;10.050;2023-02-20T01:26:58;99982.88;;;6.89;87.18
5703;BME280;2876;51.738;10.050;2023-02-20T01:33:00;99964.97;;;6.73;87.23
5703;BME280;2876;51.738;10.050;2023-02-20T01:39:02;99966.03;;;6.89;86.07
5703;BME280;2876;51.738;10.050;2023-02-20T01:51:25;99985.34;;;6.82;85.89
5703;BME280;2876;51.738;10.050;2023-02-20T01:57:31;99975.03;;;6.88;85.88
5703;BME280;2876;51.738;10.050;2023-02-20T02:03:38;99964.38;;;6.88;86.82
5703;BME280;2876;51.738;10.050;2023-02-20T02:09:59;99943.84;;;6.80;86.70
5703;BME280;2876;51.738;10.050;2023-02-20T02:43:01;99913.34;;;6.74;88.43
5703;BME280;2876;51.738;10.050;2023-02-20T02:55:35;99862.00;;;6.64;88.56
5703;BME280;2876;51.738;10.050;2023-02-20T03:01:54;99870.25;;;6.53;90.16
5703;BME280;2876;51.738;10.050;2023-02-20T03:07:57;99876.94;;;6.57;90.62
5703;BME280;2876;51.738;10.050;2023-02-20T03:14:14;99874.97;;;6.59;89.88
5703;BME280;2876;51.738;10.050;2023-02-20T03:21:22;99865.59;;;6.47;89.95
5703;BME280;2876;51.738;10.050;2023-02-20T03:33:45;99847.72;;;6.39;91.50
5703;BME280;2876;51.738;10.050;2023-02-20T03:40:10;99842.69;;;6.28;92.75
5703;BME280;2876;51.738;10.050;2023-02-20T03:46:32;99836.94;;;6.41;92.11
5703;BME280;2876;51.738;10.050;2023-02-20T03:52:37;99844.56;;;6.44;93.05
5703;BME280;2876;51.738;10.050;2023-02-20T03:58:43;99855.09;;;6.45;92.15
5703;BME280;2876;51.738;10.050;2023-02-20T04:04:53;99856.19;;;6.34;93.29
5703;BME280;2876;51.738;10.050;2023-02-20T04:11:12;99861.25;;;6.46;92.18
5703;BME280;2876;51.738;10.050;2023-02-20T04:17:23;99847.41;;;6.42;91.49
5703;BME280;2876;51.738;10.050;2023-02-20T04:23:26;99850.84;;;6.69;90.70
5703;BME280;2876;51.738;10.050;2023-02-20T04:29:29;99841.47;;;6.56;90.20
5703;BME280;2876;51.738;10.050;2023-02-20T04:35:31;99853.13;;;6.55;90.07
5703;BME280;2876;51.738;10.050;2023-02-20T04:41:33;99838.63;;;6.50;89.03
5703;BME280;2876;51.738;10.050;2023-02-20T04:47:35;99839.31;;;6.60;89.06
5703;BME280;2876;51.738;10.050;2023-02-20T04:53:37;99815.56;;;6.32;89.50
5703;BME280;2876;51.738;10.050;2023-02-20T04:59:39;99825.31;;;6.50;89.82
5703;BME280;2876;51.738;10.050;2023-02-20T05:05:41;99773.34;;;6.54;89.69
5703;BME280;2876;51.738;10.050;2023-02-20T05:11:43;99765.31;;;6.38;89.40
5703;BME280;2876;51.738;10.050;2023-02-20T05:17:45;99763.00;;;6.43;89.46
5703;BME280;2876;51.738;10.050;2023-02-20T05:23:47;99768.03;;;6.62;88.35
5703;BME280;2876;51.738;10.050;2023-02-20T05:29:56;99773.03;;;6.57;88.03
5703;BME280;2876;51.738;10.050;2023-02-20T05:35:59;99741.50;;;6.36;88.96
5703;BME280;2876;51.738;10.050;2023-02-20T05:42:01;99748.03;;;6.50;88.27
5703;BME280;2876;51.738;10.050;2023-02-20T05:48:03;99735.63;;;6.24;89.10
5703;BME280;2876;51.738;10.050;2023-02-20T05:54:06;99729.50;;;6.32;88.81
5703;BME280;2876;51.738;10.050;2023-02-20T06:00:08;99748.00;;;6.42;86.94
5703;BME280;2876;51.738;10.050;2023-02-20T06:06:11;99760.09;;;6.20;88.36
5703;BME280;2876;51.738;10.050;2023-02-20T06:12:13;99736.66;;;6.40;88.31
5703;BME280;2876;51.738;10.050;2023-02-20T06:18:15;99727.88;;;6.47;87.53
5703;BME280;2876;51.738;10.050;2023-02-20T06:24:18;99705.69;;;6.30;88.15
5703;BME280;2876;51.738;10.050;2023-02-20T06:30:20;99709.31;;;6.21;89.44
5703;BME280;2876;51.738;10.050;2023-02-20T06:36:29;99701.47;;;6.12;89.61
5703;BME280;2876;51.738;10.050;2023-02-20T06:42:33;99714.19;;;6.34;89.80
5703;BME280;2876;51.738;10.050;2023-02-20T06:48:56;99705.31;;;6.09;90.28
5703;BME280;2876;51.738;10.050;2023-02-20T06:54:58;99708.81;;;6.26;90.76
5703;BME280;2876;51.738;10.050;2023-02-20T07:01:00;99719.81;;;6.31;89.54
5703;BME280;2876;51.738;10.050;2023-02-20T07:07:02;99710.69;;;6.33;89.88
5703;BME280;2876;51.738;10.050;2023-02-20T07:13:04;99712.53;;;6.49;89.61
5703;BME280;2876;51.738;10.050;2023-02-20T07:19:06;99708.56;;;6.45;89.36
5703;BME280;2876;51.738;10.050;2023-02-20T07:25:08;99690.72;;;6.54;89.48
5703;BME280;2876;51.738;10.050;2023-02-20T07:31:11;99689.25;;;6.84;88.69
5703;BME280;2876;51.738;10.050;2023-02-20T07:37:14;99693.25;;;6.72;89.02
5703;BME280;2876;51.738;10.050;2023-02-20T07:43:16;99675.75;;;6.94;88.83
5703;BME280;2876;51.738;10.050;2023-02-20T07:49:18;99669.25;;;7.12;87.75
5703;BME280;2876;51.738;10.050;2023-02-20T07:55:20;99665.53;;;7.30;87.49
5703;BME280;2876;51.738;10.050;2023-02-20T08:01:22;99673.41;;;7.07;88.05
5703;BME280;2876;51.738;10.050;2023-02-20T08:07:24;99690.75;;;7.27;87.13
5703;BME280;2876;51.738;10.050;2023-02-20T08:13:26;99680.84;;;7.44;87.21
5703;BME280;2876;51.738;10.050;2023-02-20T08:19:28;99676.31;;;7.61;86.95
5703;BME280;2876;51.738;10.050;2023-02-20T08:25:30;99666.09;;;7.73;86.60
5703;BME280;2876;51.738;10.050;2023-02-20T08:31:33;99678.44;;;8.13;85.61
5703;BME280;2876;51.738;10.050;2023-02-20T08:37:35;99678.72;;;8.49;83.16
5703;BME280;2876;51.738;10.050;2023-02-20T08:43:38;99668.66;;;8.36;82.93
5703;BME280;2876;51.738;10.050;2023-02-20T08:49:41;99657.25;;;8.03;85.06
5703;BME280;2876;51.738;10.050;2023-02-20T08:55:43;99652.31;;;7.92;85.71
5703;BME280;2876;51.738;10.050;2023-02-20T09:01:45;99644.81;;;7.96;85.31
5703;BME280;2876;51.738;10.050;2023-02-20T09:07:47;99639.06;;;8.07;85.40
5703;BME280;2876;51.738;10.050;2023-02-20T09:13:49;99638.91;;;8.08;85.06
5703;BME280;2876;51.738;10.050;2023-02-20T09:19:51;99638.19;;;8.46;84.08
5703;BME280;2876;51.738;10.050;2023-02-20T09:25:53;99626.91;;;8.58;83.62
5703;BME280;2876;51.738;10.050;2023-02-20T09:31:55;99634.38;;;9.01;81.06
5703;BME280;2876;51.738;10.050;2023-02-20T09:37:57;99643.72;;;9.05;81.56
5703;BME280;2876;51.738;10.050;2023-02-20T09:50:48;99613.66;;;9.32;77.71
5703;BME280;2876;51.738;10.050;2023-02-20T09:56:58;99601.19;;;9.54;78.24
5703;BME280;2876;51.738;10.050;2023-02-20T10:09:28;99588.53;;;10.21;74.01
5703;BME280;2876;51.738;10.050;2023-02-20T10:22:34;99581.25;;;9.93;74.98
5703;BME280;2876;51.738;10.050;2023-02-20T10:28:38;99578.50;;;9.72;75.48
5703;BME280;2876;51.738;10.050;2023-02-20T10:34:48;99581.69;;;9.60;76.57
5703;BME280;2876;51.738;10.050;2023-02-20T10:41:05;99582.97;;;9.64;77.53
5703;BME280;2876;51.738;10.050;2023-02-20T10:53:54;99561.19;;;9.68;76.27
5703;BME280;2876;51.738;10.050;2023-02-20T11:00:15;99555.28;;;9.94;75.94
5703;BME280;2876;51.738;10.050;2023-02-20T11:06:22;99547.69;;;9.97;76.29
5703;BME280;2876;51.738;10.050;2023-02-20T11:12:55;99517.97;;;10.35;75.42
5703;BME280;2876;51.738;10.050;2023-02-20T11:19:15;99505.38;;;10.57;75.97
5703;BME280;2876;51.738;10.050;2023-02-20T11:31:31;99496.63;;;11.11;74.15
5703;BME280;2876;51.738;10.050;2023-02-20T11:37:34;99480.38;;;11.26;74.58
5703;BME280;2876;51.738;10.050;2023-02-20T11:50:19;99453.09;;;12.43;71.29
5703;BME280;2876;51.738;10.050;2023-02-20T11:56:23;99454.09;;;12.68;70.17
5703;BME280;2876;51.738;10.050;2023-02-20T12:02:27;99442.31;;;12.63;70.85
5703;BME280;2876;51.738;10.050;2023-02-20T12:08:46;99421.25;;;13.11;70.36
5703;BME280;2876;51.738;10.050;2023-02-20T12:14:51;99421.22;;;13.25;69.21
5703;BME280;2876;51.738;10.050;2023-02-20T12:21:07;99429.34;;;13.56;68.73
5703;BME280;2876;51.738;10.050;2023-02-20T12:40:35;99410.97;;;12.95;71.74
5703;BME280;2876;51.738;10.050;2023-02-20T12:47:38;99425.56;;;12.48;74.89
5703;BME280;2876;51.738;10.050;2023-02-20T12:54:24;99447.09;;;12.48;76.78
5703;BME280;2876;51.738;10.050;2023-02-20T13:00:40;99432.75;;;11.61;79.49
5703;BME280;2876;51.738;10.050;2023-02-20T13:07:02;99435.59;;;11.33;79.97
5703;BME280;2876;51.738;10.050;2023-02-20T13:13:09;99435.59;;;11.39;81.18
5703;BME280;2876;51.738;10.050;2023-02-20T13:19:31;99408.78;;;11.46;79.74
5703;BME280;2876;51.738;10.050;2023-02-20T13:25:46;99396.81;;;11.55;80.32
5703;BME280;2876;51.738;10.050;2023-02-20T13:31:52;99395.56;;;11.51;81.07
5703;BME280;2876;51.738;10.050;2023-02-20T13:37:55;99414.06;;;11.20;80.79
5703;BME280;2876;51.738;10.050;2023-02-20T13:44:39;99415.38;;;10.89;83.11
5703;BME280;2876;51.738;10.050;2023-02-20T13:50:41;99442.88;;;10.28;84.00
5703;BME280;2876;51.738;10.050;2023-02-20T13:57:17;99432.47;;;9.97;85.77
5703;BME280;2876;51.738;10.050;2023-02-20T14:03:30;99456.22;;;9.79;87.39
5703;BME280;2876;51.738;10.050;2023-02-20T14:09:32;99458.81;;;9.51;88.51
5703;BME280;2876;51.738;10.050;2023-02-20T14:15:49;99454.75;;;9.19;90.38
5703;BME280;2876;51.738;10.050;2023-02-20T14:21:52;99465.94;;;8.93;91.56
5703;BME280;2876;51.738;10.050;2023-02-20T14:28:13;99458.91;;;8.62;93.50
5703;BME280;2876;51.738;10.050;2023-02-20T14:40:42;99462.31;;;8.41;94.80
5703;BME280;2876;51.738;10.050;2023-02-20T14:46:46;99441.16;;;8.54;93.77
5703;BME280;2876;51.738;10.050;2023-02-20T14:53:14;99439.84;;;8.65;92.75
5703;BME280;2876;51.738;10.050;2023-02-20T14:59:31;99442.53;;;8.50;92.67
5703;BME280;2876;51.738;10.050;2023-02-20T15:05:34;99439.94;;;8.57;93.21
5703;BME280;2876;51.738;10.050;2023-02-20T15:11:50;99453.13;;;8.58;93.00
5703;BME280;2876;51.738;10.050;2023-02-20T15:18:13;99439.38;;;8.61;93.01
5703;BME280;2876;51.738;10.050;2023-02-20T15:30:26;99450.63;;;8.57;93.65
5703;BME280;2876;51.738;10.050;2023-02-20T15:36:28;99446.94;;;8.43;94.24
5703;BME280;2876;51.738;10.050;2023-02-20T15:42:30;99450.25;;;8.45;94.28
5703;BME280;2876;51.738;10.050;2023-02-20T15:48:31;99458.84;;;8.55;94.30
5703;BME280;2876;51.738;10.050;2023-02-20T15:54:34;99449.91;;;8.63;93.71
5703;BME280;2876;51.738;10.050;2023-02-20T16:00:36;99455.50;;;8.53;93.94
5703;BME280;2876;51.738;10.050;2023-02-20T16:06:38;99454.66;;;8.38;94.40
5703;BME280;2876;51.738;10.050;2023-02-20T16:12:40;99441.84;;;8.48;94.36
5703;BME280;2876;51.738;10.050;2023-02-20T16:18:42;99445.06;;;8.44;94.61
5703;BME280;2876;51.738;10.050;2023-02-20T16:24:44;99436.59;;;8.40;94.46
5703;BME280;2876;51.738;10.050;2023-02-20T16:30:47;99445.66;;;8.31;95.26
5703;BME280;2876;51.738;10.050;2023-02-20T16:36:51;99447.50;;;8.30;95.34
5703;BME280;2876;51.738;10.050;2023-02-20T16:42:54;99445.78;;;8.23;95.75
5703;BME280;2876;51.738;10.050;2023-02-20T16:48:56;99469.56;;;8.32;95.84
5703;BME280;2876;51.738;10.050;2023-02-20T16:54:58;99469.44;;;8.26;95.69
5703;BME280;2876;51.738;10.050;2023-02-20T17:01:01;99481.03;;;8.41;95.84
5703;BME280;2876;51.738;10.050;2023-02-20T17:07:03;99464.38;;;8.31;95.93
5703;BME280;2876;51.738;10.050;2023-02-20T17:13:09;99480.00;;;8.42;96.14
5703;BME280;2876;51.738;10.050;2023-02-20T17:19:11;99478.00;;;8.21;97.03
5703;BME280;2876;51.738;10.050;2023-02-20T17:25:17;99479.69;;;8.22;97.76
5703;BME280;2876;51.738;10.050;2023-02-20T17:31:19;99477.56;;;8.18;98.15
5703;BME280;2876;51.738;10.050;2023-02-20T17:37:23;99478.75;;;8.30;98.08
5703;BME280;2876;51.738;10.050;2023-02-20T17:43:27;99477.06;;;8.14;98.98
5703;BME280;2876;51.738;10.050;2023-02-20T17:49:29;99490.53;;;8.21;99.29
5703;BME280;2876;51.738;10.050;2023-02-20T17:55:31;99478.06;;;8.36;98.13
5703;BME280;2876;51.738;10.050;2023-02-20T18:01:34;99470.94;;;8.28;98.71
5703;BME280;2876;51.738;10.050;2023-02-20T18:07:36;99466.06;;;8.32;98.71
5703;BME280;2876;51.738;10.050;2023-02-20T18:13:39;99462.19;;;8.34;98.08
5703;BME280;2876;51.738;10.050;2023-02-20T18:19:41;99456.50;;;8.37;97.56
5703;BME280;2876;51.738;10.050;2023-02-20T18:25:43;99458.81;;;8.41;97.89
5703;BME280;2876;51.738;10.050;2023-02-20T18:31:45;99466.38;;;8.52;96.53
5703;BME280;2876;51.738;10.050;2023-02-20T18:37:48;99477.81;;;8.60;96.64
5703;BME280;2876;51.738;10.050;2023-02-20T18:43:49;99477.81;;;8.75;95.83
5703;BME280;2876;51.738;10.050;2023-02-20T18:49:52;99478.56;;;8.84;94.29
5703;BME280;2876;51.738;10.050;2023-02-20T18:55:54;99485.13;;;8.81;94.68
5703;BME280;2876;51.738;10.050;2023-02-20T19:01:57;99478.38;;;8.85;94.38
5703;BME280;2876;51.738;10.050;2023-02-20T19:08:01;99487.81;;;8.81;94.80
5703;BME280;2876;51.738;10.050;2023-02-20T19:14:04;99486.31;;;8.94;94.55
5703;BME280;2876;51.738;10.050;2023-02-20T19:20:13;99482.25;;;8.98;93.36
5703;BME280;2876;51.738;10.050;2023-02-20T19:26:15;99491.03;;;8.92;94.51
5703;BME280;2876;51.738;10.050;2023-02-20T19:32:18;99475.16;;;8.90;93.84
5703;BME280;2876;51.738;10.050;2023-02-20T19:38:21;99462.50;;;8.99;94.14
5703;BME280;2876;51.738;10.050;2023-02-20T19:44:23;99455.22;;;8.93;94.12
5703;BME280;2876;51.738;10.050;2023-02-20T19:50:26;99451.47;;;8.87;94.39
5703;BME280;2876;51.738;10.050;2023-02-20T19:56:31;99456.63;;;8.88;94.72
5703;BME280;2876;51.738;10.050;2023-02-20T20:02:33;99446.56;;;9.05;94.55
5703;BME280;2876;51.738;10.050;2023-02-20T20:08:35;99442.22;;;9.04;94.58
5703;BME280;2876;51.738;10.050;2023-02-20T20:14:41;99447.31;;;8.84;95.49
5703;BME280;2876;51.738;10.050;2023-02-20T20:20:43;99434.28;;;8.96;95.51
5703;BME280;2876;51.738;10.050;2023-02-20T20:26:44;99430.69;;;8.89;96.30
5703;BME280;2876;51.738;10.050;2023-02-20T20:32:47;99419.72;;;8.84;96.64
5703;BME280;2876;51.738;10.050;2023-02-20T20:38:52;99390.00;;;8.94;96.25
5703;BME280;2876;51.738;10.050;2023-02-20T20:44:57;99378.59;;;8.85;97.18
5703;BME280;2876;51.738;10.050;2023-02-20T20:50:59;99381.06;;;9.01;97.06
5703;BME280;2876;51.738;10.050;2023-02-20T20:57:01;99394.19;;;8.81;97.84
5703;BME280;2876;51.738;10.050;2023-02-20T21:03:05;99401.78;;;8.63;99.21
5703;BME280;2876;51.738;10.050;2023-02-20T21:09:07;99401.94;;;8.91;98.51
5703;BME280;2876;51.738;10.050;2023-02-20T21:15:11;99409.84;;;8.84;98.04
5703;BME280;2876;51.738;10.050;2023-02-20T21:21:13;99417.97;;;8.91;97.79
5703;BME280;2876;51.738;10.050;2023-02-20T21:27:15;99409.75;;;8.93;97.45
5703;BME280;2876;51.738;10.050;2023-02-20T21:33:18;99408.91;;;9.07;97.05
5703;BME280;2876;51.738;10.050;2023-02-20T21:39:20;99394.22;;;9.18;96.25
5703;BME280;2876;51.738;10.050;2023-02-20T21:45:24;99388.47;;;9.21;96.61
5703;BME280;2876;51.738;10.050;2023-02-20T21:51:27;99385.88;;;9.27;95.68
5703;BME280;2876;51.738;10.050;2023-02-20T21:57:28;99391.34;;;9.19;96.64
5703;BME280;2876;51.738;10.050;2023-02-20T22:03:30;99386.97;;;9.33;95.72
5703;BME280;2876;51.738;10.050;2023-02-20T22:09:33;99397.22;;;9.29;95.86
5703;BME280;2876;51.738;10.050;2023-02-20T22:15:53;99396.75;;;9.04;97.16
5703;BME280;2876;51.738;10.050;2023-02-20T22:22:13;99383.53;;;9.18;97.29
5703;BME280;2876;51.738;10.050;2023-02-20T22:28:34;99397.00;;;9.31;96.81
5703;BME280;2876;51.738;10.050;2023-02-20T22:34:54;99395.63;;;8.99;97.92
5703;BME280;2876;51.738;10.050;2023-02-20T22:41:20;99409.72;;;9.07;98.33
5703;BME280;2876;51.738;10.050;2023-02-20T22:47:41;99401.97;;;9.12;98.83
5703;BME280;2876;51.738;10.050;2023-02-20T22:54:02;99404.78;;;9.26;98.37
5703;BME280;2876;51.738;10.050;2023-02-20T23:00:22;99393.94;;;9.12;99.25
5703;BME280;2876;51.738;10.050;2023-02-20T23:06:43;99395.97;;;9.10;99.89
5703;BME280;2876;51.738;10.050;2023-02-20T23:13:04;99404.53;;;9.21;98.99
5703;BME280;2876;51.738;10.050;2023-02-20T23:19:25;99408.56;;;9.53;97.71
5703;BME280;2876;51.738;10.050;2023-02-20T23:25:45;99399.28;;;9.27;98.60
5703;BME280;2876;51.738;10.050;2023-02-20T23:32:06;99407.50;;;9.11;99.54
5703;BME280;2876;51.738;10.050;2023-02-20T23:38:26;99405.59;;;8.90;100.00
5703;BME280;2876;51.738;10.050;2023-02-20T23:44:47;99414.59;;;9.19;100.00
5703;BME280;2876;51.738;10.050;2023-02-20T23:51:11;99421.16;;;9.16;100.00
5703;BME280;2876;51.738;10.050;2023-02-20T23:57:31;99393.63;;;9.01;100.00
